WetterOnline ( https://www.wetteronline.de )

Wetter aktuell Fulda

Aktuelles Wetter: Wasserkuppe (925m)

6-stündlich | Neueste Meldungen
Ortszeit Temperatur Wetter
Do, 26.05. 8:00 8.3° C bedeckt
Do, 26.05. 2:00 9.2° C bedeckt
Mi, 25.05. 20:00 11.9° C wolkig
Mi, 25.05. 14:00 13.6° C leicht bewölkt
Mi, 25.05. 8:00 8.7° C wolkenlos
Mi, 25.05. 2:00 7.1° C leicht bewölkt
Di, 24.05. 20:00 10.4° C leicht bewölkt
Di, 24.05. 14:00 9.5° C bedeckt
Ortszeit Temperatur Wetter
Do, 26.05. 13:30 12.9° C bewölkt
Do, 26.05. 13:20 12.9° C bewölkt
Do, 26.05. 13:10 13.8° C bedeckt
Do, 26.05. 13:00 11.6° C bedeckt
Do, 26.05. 12:50 11.6° C bedeckt
Do, 26.05. 12:40 10.8° C bedeckt
Do, 26.05. 12:30 10.7° C bewölkt
Do, 26.05. 12:00 10.8° C bedeckt
Do, 26.05. 11:30 10.1° C bedeckt
Do, 26.05. 11:00 12.2° C bewölkt
Do, 26.05. 10:30 10.0° C bedeckt
Ortszeit Relative Feuchte Sichtweite
Do, 26.05. 8:00 88% 55 km
Do, 26.05. 2:00 70% 60 km
Mi, 25.05. 20:00 58% 50 km
Mi, 25.05. 14:00 58% >70 km
Mi, 25.05. 8:00 80% 55 km
Mi, 25.05. 2:00 80% >70 km
Di, 24.05. 20:00 71% 65 km
Di, 24.05. 14:00 89% 55 km
Ortszeit Relative Feuchte Sichtweite
Do, 26.05. 13:30 77% 55 km
Do, 26.05. 13:20 77% -
Do, 26.05. 13:10 73% -
Do, 26.05. 13:00 79% 40 km
Do, 26.05. 12:50 79% -
Do, 26.05. 12:40 82% -
Do, 26.05. 12:30 80% 60 km
Do, 26.05. 12:00 81% 65 km
Do, 26.05. 11:30 83% 55 km
Do, 26.05. 11:00 76% 60 km
Do, 26.05. 10:30 84% 50 km
Ortszeit Niederschlagsmenge Niederschlagsart
Do, 26.05. 8:00 0.1 l/m2 in 12 Std. Sprühregen
Do, 26.05. 2:00 0.0 l/m2 in 6 Std. -
Mi, 25.05. 20:00 0.0 l/m2 in 12 Std. -
Mi, 25.05. 14:00 0.0 l/m2 in 6 Std. -
Mi, 25.05. 8:00 0.0 l/m2 in 12 Std. -
Mi, 25.05. 2:00 0.0 l/m2 in 6 Std. -
Di, 24.05. 20:00 2 l/m2 in 12 Std. Regen
Di, 24.05. 14:00 2 l/m2 in 6 Std. Regen
Ortszeit Niederschlagsmenge Niederschlagsart
Do, 26.05. 13:30 0.0 l/m2 in 1 Std. -
Do, 26.05. 13:20 keine Meldung -
Do, 26.05. 13:10 keine Meldung -
Do, 26.05. 13:00 0.0 l/m2 in 1 Std. -
Do, 26.05. 12:50 keine Meldung -
Do, 26.05. 12:40 keine Meldung -
Do, 26.05. 12:30 0.0 l/m2 in 1 Std. -
Do, 26.05. 12:00 0.0 l/m2 in 1 Std. -
Do, 26.05. 11:30 0.0 l/m2 in 1 Std. -
Do, 26.05. 11:00 0.0 l/m2 in 1 Std. -
Do, 26.05. 10:30 0.0 l/m2 in 1 Std. -
Ortszeit Stärke Spitze Richtung
km/h Bft. km/h Grad Sektor
Do, 26.05. 8:00 25 4 47 250° W
Do, 26.05. 2:00 26 4 43 250° W
Mi, 25.05. 20:00 20 4 50 260° W
Mi, 25.05. 14:00 29 5 43 240° SW
Mi, 25.05. 8:00 13 3 19 250° W
Mi, 25.05. 2:00 9 2 19 260° W
Di, 24.05. 20:00 11 2 40 290° W
Di, 24.05. 14:00 14 3 61 270° W
Ortszeit Stärke Spitze Richtung
km/h Bft. km/h Grad Sektor
Do, 26.05. 13:30 22 4 40 260° W
Do, 26.05. 13:20 22 4 - 260° W
Do, 26.05. 13:10 25 4 - 260° W
Do, 26.05. 13:00 19 3 37 250° W
Do, 26.05. 12:50 19 3 - 250° W
Do, 26.05. 12:40 20 4 - 270° W
Do, 26.05. 12:30 22 4 36 260° W
Do, 26.05. 12:00 24 4 39 260° W
Do, 26.05. 11:30 19 3 39 250° W
Do, 26.05. 11:00 28 4 41 260° W
Do, 26.05. 10:30 24 4 41 250° W
Ortszeit Untergrenze Bedeckung Gattung
total tief tief mittel hoch
Do, 26.05. 8:00 330 m 8/8 8/8 - - -
Do, 26.05. 2:00 2400 m 8/8 8/8 - - -
Mi, 25.05. 20:00 1350 m 6/8 6/8 - - -
Mi, 25.05. 14:00 960 m 4/8 4/8 - - -
Mi, 25.05. 8:00 - 0/8 0/8 - - -
Mi, 25.05. 2:00 1230 m 6/8 1/8 - - -
Di, 24.05. 20:00 870 m 3/8 3/8 - - -
Di, 24.05. 14:00 210 m 8/8 8/8 - - -
Ortszeit Bedeckungsgrad in Achtel und Wolkenuntergrenze
Do, 26.05. 13:30 4(450m) 6(660m) 7(1350m)
Do, 26.05. 13:20 4(450m) 6(660m) 7(1350m)
Do, 26.05. 13:10 8
Do, 26.05. 13:00 6(360m) 7(540m) 8(1350m)
Do, 26.05. 12:50 6(360m) 7(540m) 8(1350m)
Do, 26.05. 12:40 8
Do, 26.05. 12:30 2(390m) 7(720m) 7(870m)
Do, 26.05. 12:00 5(360m) 7(690m) 8(1200m)
Do, 26.05. 11:30 4(360m) 7(840m) 8(1320m)
Do, 26.05. 11:00 2(270m) 6(1080m) 7(1320m)
Do, 26.05. 10:30 6(240m) 7(360m) 8(510m)
Ortszeit Stationsdruck (hPa) Tendenz (hPa in 3 Std.)
Do, 26.05. 8:00 914 + 1,2
Do, 26.05. 2:00 913 + 0,5
Mi, 25.05. 20:00 912 + 0,8
Mi, 25.05. 14:00 911 + 0,4
Mi, 25.05. 8:00 909 + 1,3
Mi, 25.05. 2:00 907 + 0,5
Di, 24.05. 20:00 905 + 1,2
Di, 24.05. 14:00 903 + 1,8
Ortszeit Stationsdruck (hPa) Tendenz (hPa in 3 Std.)
Do, 26.05. 13:30 916 + 1,2
Do, 26.05. 13:20 916 keine Meldung
Do, 26.05. 13:10 916 keine Meldung
Do, 26.05. 13:00 916 + 1,4
Do, 26.05. 12:50 916 keine Meldung
Do, 26.05. 12:40 916 keine Meldung
Do, 26.05. 12:30 916 + 1,7
Do, 26.05. 12:00 916 + 1,7
Do, 26.05. 11:30 915 + 1,6
Do, 26.05. 11:00 915 + 1,4
Do, 26.05. 10:30 915 + 1,5
Ortszeit Schneehöhe (cm)
Do, 26.05. 8:00 0
Do, 26.05. 2:00 0
Mi, 25.05. 20:00 0
Mi, 25.05. 14:00 0
Mi, 25.05. 8:00 0
Mi, 25.05. 2:00 0
Di, 24.05. 20:00 0
Di, 24.05. 14:00 0
Ortszeit Schneehöhe (cm)
Do, 26.05. 13:30 0
Do, 26.05. 13:20 0
Do, 26.05. 13:10 0
Do, 26.05. 13:00 0
Do, 26.05. 12:50 0
Do, 26.05. 12:40 0
Do, 26.05. 12:30 0
Do, 26.05. 12:00 0
Do, 26.05. 11:30 0
Do, 26.05. 11:00 0
Do, 26.05. 10:30 0
Link zu dieser Seite / Seite empfehlen

Das Wetter in ...